Freeport, IL

12:24 PM CDT on June 23, 2017 (GMT -0500)
Albertus

Weather History for KFEP - March, 2014

Change the Weather History Date:

Thursday, March 13, 2014

  Actual Average Record
Temperature  
Mean Temperature 28 °F -  
Max Temperature 40 °F 44 °F 77 °F (1990)
Min Temperature 16 °F 24 °F 3 °F (1975)
Degree Days  
Heating Degree Days 37    
Moisture  
Dew Point 25 °F    
Average Humidity 84    
Maximum Humidity 91    
Minimum Humidity 77    
Precipitation  
Precipitation 0.00 in - - ()
Sea Level Pressure  
Sea Level Pressure 29.99 in    
Wind  
Wind Speed 8 mph (South)    
Max Wind Speed 21 mph    
Max Gust Speed 26 mph    
Visibility 10 miles    
Events      
Averages and records for this station are not official NWS values.
T = Trace of Precipitation, MM = Missing Value Source: NWS Daily Summary

Daily Weather History Graph

Daily Weather History Graph

Search for Another Location

Airport or City:

Trip Planner

Search our weather history database for the weather conditions in past years. The results will help you decide how hot, cold, wet, or windy it might be!

Date:

Astronomy

Mar. 13, 2014 Rise Set
Actual Time 7:13 AM CDT 7:02 PM CDT
Civil Twilight 6:45 AM CDT 7:30 PM CDT
Nautical Twilight 6:13 AM CDT 8:03 PM CDT
Astronomical Twilight 5:40 AM CDT 8:36 PM CDT
Moon 4:26 PM CDT (3/13) 5:23 AM CDT (3/13)
Length of Visible Light 12h 44m
Length of Day
11h 48m
Waxing Gibbous, 91% of the Moon is Illuminated
Mar 13
Waxing Gibbous
Mar 16
Full
Mar 23
Last Quarter
Mar 30
New
Apr 7
First Quarter

Hourly Weather History & Observations

Time (CDT) Temp. Windchill Dew Point Humidity Pressure Visibility Wind Dir Wind Speed Gust Speed Precip Events Conditions
12:15 AM 18.7 °F - 13.3 °F 79% 30.11 in 10.0 mi Calm Calm - N/A   Clear
12:35 AM 18.5 °F - 13.6 °F 81% 30.11 in 10.0 mi Calm Calm - N/A   Clear
12:55 AM 18.5 °F - 14.5 °F 85% 30.11 in 10.0 mi Calm Calm - N/A   Clear
1:20 AM 18.5 °F - 14.2 °F 83% 30.11 in 10.0 mi Calm Calm - N/A   Clear
1:35 AM 18.5 °F 13.3 °F 14.7 °F 85% 30.11 in 10.0 mi SE 3.5 mph - N/A   Clear
1:55 AM 16.3 °F - 12.0 °F 83% 30.11 in 10.0 mi Calm Calm - N/A   Clear
2:15 AM 18.5 °F - 13.8 °F 82% 30.11 in 10.0 mi Calm Calm - N/A   Clear
2:35 AM 16.2 °F 10.6 °F 12.0 °F 84% 30.10 in 10.0 mi SE 3.5 mph - N/A   Clear
2:55 AM 16.2 °F 10.6 °F 12.2 °F 84% 30.10 in 10.0 mi SE 3.5 mph - N/A   Clear
3:15 AM 16.9 °F - 12.4 °F 82% 30.10 in 10.0 mi Calm Calm - N/A   Clear
3:35 AM 18.5 °F 10.4 °F 12.9 °F 79% 30.09 in 10.0 mi SSE 5.8 mph - N/A   Clear
3:55 AM 18.5 °F 11.7 °F 13.8 °F 82% 30.09 in 10.0 mi SSE 4.6 mph - N/A   Clear
4:15 AM 18.5 °F 9.3 °F 14.2 °F 83% 30.09 in 10.0 mi South 6.9 mph - N/A   Clear
4:35 AM 18.5 °F 9.3 °F 14.4 °F 84% 30.08 in 10.0 mi South 6.9 mph - N/A   Clear
4:55 AM 18.7 °F 7.8 °F 14.4 °F 83% 30.08 in 10.0 mi South 9.2 mph - N/A   Clear
5:15 AM 18.9 °F 8.0 °F 14.2 °F 82% 30.08 in 10.0 mi South 9.2 mph - N/A   Clear
5:35 AM 18.5 °F 9.3 °F 14.0 °F 83% 30.08 in 10.0 mi South 6.9 mph - N/A   Clear
5:55 AM 18.5 °F 9.3 °F 14.4 °F 84% 30.09 in 10.0 mi South 6.9 mph - N/A   Clear
6:15 AM 18.5 °F 9.3 °F 14.5 °F 85% 30.08 in 10.0 mi South 6.9 mph - N/A   Clear
6:35 AM 18.5 °F 8.4 °F 14.7 °F 85% 30.09 in 10.0 mi South 8.1 mph - N/A   Clear
6:55 AM 18.5 °F 8.4 °F 14.9 °F 86% 30.08 in 10.0 mi South 8.1 mph - N/A   Clear
7:15 AM 18.5 °F 8.4 °F 14.9 °F 86% 30.08 in 10.0 mi South 8.1 mph - N/A   Clear
7:35 AM 18.7 °F 8.6 °F 15.3 °F 87% 30.10 in 10.0 mi SSW 8.1 mph - N/A   Clear
7:55 AM 19.9 °F 11.1 °F 16.5 °F 87% 30.09 in 10.0 mi SSW 6.9 mph - N/A   Clear
8:15 AM 21.2 °F 13.6 °F 18.0 °F 87% 30.09 in 10.0 mi South 5.8 mph - N/A   Clear
8:35 AM 21.7 °F 13.2 °F 18.7 °F 88% 30.08 in 7.0 mi South 6.9 mph - N/A   Scattered Clouds
8:55 AM 23.7 °F 14.7 °F 20.5 °F 87% 30.08 in 10.0 mi South 8.1 mph - N/A   Mostly Cloudy
9:15 AM 23.7 °F 14.0 °F 20.3 °F 87% 30.08 in 10.0 mi South 9.2 mph - N/A   Overcast
9:35 AM 24.8 °F 14.0 °F 21.2 °F 86% 30.07 in 10.0 mi South 11.5 mph - N/A   Overcast
9:55 AM 25.3 °F 16.0 °F 21.6 °F 86% 30.07 in 10.0 mi South 9.2 mph - N/A   Overcast
10:15 AM 26.2 °F 16.4 °F 22.3 °F 85% 30.06 in 10.0 mi South 10.4 mph - N/A   Overcast
10:35 AM 27.0 °F 15.6 °F 23.5 °F 87% 30.06 in 10.0 mi South 13.8 mph - N/A   Overcast
10:55 AM 28.8 °F 17.5 °F 24.6 °F 84% 30.05 in 10.0 mi South 15.0 mph - N/A   Overcast
11:15 AM 28.8 °F 17.9 °F 24.1 °F 83% 30.04 in 10.0 mi South 13.8 mph 19.6 mph N/A   Overcast
11:35 AM 30.2 °F 18.9 °F 24.6 °F 80% 30.02 in 10.0 mi South 16.1 mph - N/A   Mostly Cloudy
11:55 AM 31.5 °F 21.4 °F 25.7 °F 79% 30.02 in 10.0 mi South 13.8 mph 19.6 mph N/A   Mostly Cloudy
12:15 PM 31.5 °F 19.8 °F 25.5 °F 79% 30.01 in 10.0 mi South 18.4 mph - N/A   Mostly Cloudy
12:35 PM 33.6 °F 22.6 °F 27.7 °F 79% 30.01 in 10.0 mi South 18.4 mph - N/A   Scattered Clouds
12:55 PM 33.8 °F 22.8 °F 27.3 °F 77% 29.99 in 10.0 mi South 18.4 mph 21.9 mph N/A   Scattered Clouds
1:15 PM 33.8 °F 22.2 °F 27.3 °F 77% 29.97 in 10.0 mi South 20.7 mph 24.2 mph N/A   Scattered Clouds
1:35 PM 33.8 °F 22.5 °F 27.3 °F 77% 29.97 in 10.0 mi South 19.6 mph 23.0 mph N/A   Clear
2:00 PM 36.0 °F 27.1 °F 29.7 °F 78% 29.97 in 10.0 mi South 13.8 mph 20.7 mph N/A   Clear
2:20 PM 36.1 °F 26.2 °F 29.7 °F 77% 29.96 in 10.0 mi SSW 17.3 mph - N/A   Clear
2:40 PM 36.1 °F 27.3 °F 30.0 °F 78% 29.95 in 10.0 mi SSW 13.8 mph - N/A   Clear
2:55 PM 37.8 °F 29.0 °F 31.5 °F 78% 29.94 in 10.0 mi SSW 15.0 mph - N/A   Clear
3:15 PM 38.7 °F 29.1 °F 32.4 °F 78% 29.94 in 10.0 mi SSW 18.4 mph - N/A   Clear
3:35 PM 38.7 °F 29.1 °F 32.7 °F 79% 29.93 in 10.0 mi South 18.4 mph 23.0 mph N/A   Clear
3:55 PM 38.7 °F 30.1 °F 32.9 °F 80% 29.93 in 10.0 mi SSW 15.0 mph - N/A   Clear
4:15 PM 38.7 °F 30.1 °F 32.9 °F 80% 29.92 in 10.0 mi SSW 15.0 mph 20.7 mph N/A   Clear
4:35 PM 38.7 °F 30.1 °F 32.9 °F 80% 29.92 in 10.0 mi South 15.0 mph 19.6 mph N/A   Clear
4:55 PM 38.7 °F 30.5 °F 32.9 °F 80% 29.91 in 10.0 mi South 13.8 mph - N/A   Clear
5:15 PM 38.7 °F 31.8 °F 33.3 °F 81% 29.90 in 10.0 mi South 10.4 mph - N/A   Clear
5:35 PM 38.7 °F 31.4 °F 33.8 °F 83% 29.89 in 10.0 mi South 11.5 mph - N/A   Clear
5:55 PM 38.7 °F 31.8 °F 34.2 °F 84% 29.89 in 10.0 mi South 10.4 mph - N/A   Clear
6:15 PM 38.7 °F 31.8 °F 34.7 °F 86% 29.89 in 10.0 mi South 10.4 mph - N/A   Clear
6:35 PM 38.7 °F 31.8 °F 34.7 °F 86% 29.89 in 10.0 mi South 10.4 mph - N/A   Clear
6:55 PM 38.7 °F 31.8 °F 35.2 °F 87% 29.88 in 10.0 mi South 10.4 mph - N/A   Clear
7:15 PM 37.6 °F 30.5 °F 34.3 °F 88% 29.88 in 10.0 mi South 10.4 mph - N/A   Clear
7:35 PM 36.3 °F 28.9 °F 33.3 °F 89% 29.87 in 10.0 mi South 10.4 mph - N/A   Clear
7:55 PM 36.1 °F 29.9 °F 33.3 °F 89% 29.87 in 10.0 mi South 8.1 mph - N/A   Clear
8:15 PM 36.1 °F 29.3 °F 33.4 °F 90% 29.86 in 10.0 mi South 9.2 mph - N/A   Clear
8:35 PM 36.1 °F 28.7 °F 33.4 °F 90% 29.86 in 10.0 mi South 10.4 mph - N/A   Clear
8:55 PM 36.1 °F 28.7 °F 33.6 °F 91% 29.84 in 10.0 mi South 10.4 mph - N/A   Clear
9:15 PM 38.7 °F 30.9 °F 36.0 °F 90% 29.83 in 10.0 mi South 12.7 mph - N/A   Clear
9:35 PM 38.7 °F 31.4 °F 35.8 °F 89% 29.83 in 10.0 mi South 11.5 mph - N/A   Clear
9:55 PM 38.7 °F 30.1 °F 35.8 °F 89% 29.83 in 10.0 mi South 15.0 mph - N/A   Clear
10:15 PM 38.7 °F 29.8 °F 35.6 °F 89% 29.82 in 10.0 mi South 16.1 mph - N/A   Clear
10:35 PM 38.7 °F 29.8 °F 35.6 °F 89% 29.82 in 10.0 mi South 16.1 mph - N/A   Clear
10:55 PM 40.1 °F 30.7 °F 35.6 °F 84% 29.81 in 10.0 mi South 19.6 mph 24.2 mph N/A   Clear
11:15 PM 40.1 °F 30.5 °F 35.6 °F 84% 29.80 in 10.0 mi SSW 20.7 mph 26.5 mph N/A   Clear
11:35 PM 40.1 °F 30.5 °F 35.6 °F 84% 29.79 in 10.0 mi SSW 20.7 mph - N/A   Clear
11:55 PM 40.1 °F 30.7 °F 35.6 °F 84% 29.79 in 10.0 mi SSW 19.6 mph - N/A   Clear